Terminal Aerodrome Forecast
Issued by NWS Charleston, WV

Home | Current Version | Previous Version | Text Only | Print | Product List | Glossary On
Versions: 1 2 3 4 5 6 7 8 9 10 11 12 13 14 15 16 17 18 19 20 21 22 23 24 25 26 27
938
FTUS41 KRLX 240847 AAB
TAFPKB
TAF AMD
KPKB 240847Z 2409/2506 00000KT P6SM SKC
     FM240930 00000KT 1/4SM FG VV001
     FM241200 00000KT 1 1/2SM BR SCT001
     FM241300 30004KT P6SM FEW050=

USA.gov is the U.S. government's official web portal to all federal, state and local government web resources and services.